Terminal Aerodrome Forecast
Issued by NWS

Home | Current Version | Previous Version | Text Only | Print | Product List | Glossary On
Versions: 1 2 3 4 5 6 7 8 9 10 11 12 13 14 15 16 17 18 19 20 21 22 23 24 25 26
042
FTUS41 KGYX 261408 AAA
TAFAUG
TAF AMD
KAUG 261408Z 2614/2712 06008KT 3SM -SHRA BR BKN008 OVC012
     FM261600 01009KT P6SM VCSH OVC012
     FM270300 35007KT P6SM BKN025 OVC040
     FM271000 35008KT P6SM BKN040=

USA.gov is the U.S. government's official web portal to all federal, state and local government web resources and services.